sensor_id;sensor_type;location;lat;lon;timestamp;temperature;humidity
42683;DHT22;28293;50.930;3.464;2022-08-04T00:02:18;22.90;72.60
42683;DHT22;28293;50.930;3.464;2022-08-04T00:05:00;22.80;72.90
42683;DHT22;28293;50.930;3.464;2022-08-04T00:07:48;22.80;72.90
42683;DHT22;28293;50.930;3.464;2022-08-04T00:10:17;22.80;72.90
42683;DHT22;28293;50.930;3.464;2022-08-04T00:12:47;22.70;72.80
42683;DHT22;28293;50.930;3.464;2022-08-04T00:15:15;22.60;72.90
42683;DHT22;28293;50.930;3.464;2022-08-04T00:17:48;22.60;73.00
42683;DHT22;28293;50.930;3.464;2022-08-04T00:20:19;22.60;73.20
42683;DHT22;28293;50.930;3.464;2022-08-04T00:22:46;22.50;73.30
42683;DHT22;28293;50.930;3.464;2022-08-04T00:25:12;22.50;73.20
42683;DHT22;28293;50.930;3.464;2022-08-04T00:27:38;22.50;73.10
42683;DHT22;28293;50.930;3.464;2022-08-04T00:30:05;22.60;73.00
42683;DHT22;28293;50.930;3.464;2022-08-04T00:32:31;22.60;73.00
42683;DHT22;28293;50.930;3.464;2022-08-04T00:34:58;22.60;72.90
42683;DHT22;28293;50.930;3.464;2022-08-04T00:37:25;22.50;72.90
42683;DHT22;28293;50.930;3.464;2022-08-04T00:39:55;22.50;72.90
42683;DHT22;28293;50.930;3.464;2022-08-04T00:42:46;22.50;73.00
42683;DHT22;28293;50.930;3.464;2022-08-04T00:53:43;22.30;73.40
42683;DHT22;28293;50.930;3.464;2022-08-04T01:07:36;22.10;73.00
42683;DHT22;28293;50.930;3.464;2022-08-04T01:23:53;22.00;72.80
42683;DHT22;28293;50.930;3.464;2022-08-04T01:26:47;22.00;72.70
42683;DHT22;28293;50.930;3.464;2022-08-04T01:29:15;21.90;72.70
42683;DHT22;28293;50.930;3.464;2022-08-04T01:34:28;21.90;72.70
42683;DHT22;28293;50.930;3.464;2022-08-04T01:39:35;21.80;72.70
42683;DHT22;28293;50.930;3.464;2022-08-04T01:42:06;21.90;72.70
42683;DHT22;28293;50.930;3.464;2022-08-04T01:44:32;21.90;72.70
42683;DHT22;28293;50.930;3.464;2022-08-04T01:47:01;21.80;72.70
42683;DHT22;28293;50.930;3.464;2022-08-04T01:49:29;21.90;72.70
42683;DHT22;28293;50.930;3.464;2022-08-04T01:51:56;21.90;72.70
42683;DHT22;28293;50.930;3.464;2022-08-04T01:54:22;21.90;72.70
42683;DHT22;28293;50.930;3.464;2022-08-04T01:56:53;21.90;72.70
42683;DHT22;28293;50.930;3.464;2022-08-04T01:59:19;21.90;72.70
42683;DHT22;28293;50.930;3.464;2022-08-04T02:01:46;21.90;72.70
42683;DHT22;28293;50.930;3.464;2022-08-04T02:04:16;21.90;72.80
42683;DHT22;28293;50.930;3.464;2022-08-04T02:07:01;21.90;72.80
42683;DHT22;28293;50.930;3.464;2022-08-04T02:10:07;21.90;72.70
42683;DHT22;28293;50.930;3.464;2022-08-04T02:15:29;21.70;72.80
42683;DHT22;28293;50.930;3.464;2022-08-04T02:18:04;21.70;73.10
42683;DHT22;28293;50.930;3.464;2022-08-04T02:20:34;21.70;73.10
42683;DHT22;28293;50.930;3.464;2022-08-04T02:23:13;21.80;73.00
42683;DHT22;28293;50.930;3.464;2022-08-04T02:29:18;21.60;73.30
42683;DHT22;28293;50.930;3.464;2022-08-04T02:31:42;21.50;73.90
42683;DHT22;28293;50.930;3.464;2022-08-04T02:36:58;21.30;74.20
42683;DHT22;28293;50.930;3.464;2022-08-04T02:39:29;21.20;74.60
42683;DHT22;28293;50.930;3.464;2022-08-04T02:41:58;21.10;74.90
42683;DHT22;28293;50.930;3.464;2022-08-04T02:44:26;21.00;75.30
42683;DHT22;28293;50.930;3.464;2022-08-04T02:46:53;20.90;75.70
42683;DHT22;28293;50.930;3.464;2022-08-04T02:49:22;20.90;75.80
42683;DHT22;28293;50.930;3.464;2022-08-04T02:51:54;20.80;76.40
42683;DHT22;28293;50.930;3.464;2022-08-04T02:54:27;20.70;76.60
42683;DHT22;28293;50.930;3.464;2022-08-04T02:56:56;20.60;76.90
42683;DHT22;28293;50.930;3.464;2022-08-04T02:59:25;20.60;77.20
42683;DHT22;28293;50.930;3.464;2022-08-04T03:01:55;20.60;77.20
42683;DHT22;28293;50.930;3.464;2022-08-04T03:04:42;20.60;77.30
42683;DHT22;28293;50.930;3.464;2022-08-04T03:07:47;20.60;77.60
42683;DHT22;28293;50.930;3.464;2022-08-04T03:29:49;20.60;78.20
42683;DHT22;28293;50.930;3.464;2022-08-04T03:42:22;20.40;78.90
42683;DHT22;28293;50.930;3.464;2022-08-04T04:18:39;20.00;81.40
42683;DHT22;28293;50.930;3.464;2022-08-04T04:21:19;19.90;81.50
42683;DHT22;28293;50.930;3.464;2022-08-04T04:24:09;20.00;81.60
42683;DHT22;28293;50.930;3.464;2022-08-04T04:29:47;20.00;81.70
42683;DHT22;28293;50.930;3.464;2022-08-04T04:45:57;19.70;83.10
42683;DHT22;28293;50.930;3.464;2022-08-04T04:51:19;19.60;84.10
42683;DHT22;28293;50.930;3.464;2022-08-04T04:53:57;19.60;84.30
42683;DHT22;28293;50.930;3.464;2022-08-04T04:56:47;19.70;84.50
42683;DHT22;28293;50.930;3.464;2022-08-04T04:59:21;19.70;84.60
42683;DHT22;28293;50.930;3.464;2022-08-04T05:16:31;19.90;85.30
42683;DHT22;28293;50.930;3.464;2022-08-04T05:21:48;20.00;85.50
42683;DHT22;28293;50.930;3.464;2022-08-04T05:24:17;20.10;85.50
42683;DHT22;28293;50.930;3.464;2022-08-04T05:26:55;20.10;85.60
42683;DHT22;28293;50.930;3.464;2022-08-04T05:29:30;20.10;85.90
42683;DHT22;28293;50.930;3.464;2022-08-04T05:32:00;20.20;85.80
42683;DHT22;28293;50.930;3.464;2022-08-04T05:34:33;20.20;86.20
42683;DHT22;28293;50.930;3.464;2022-08-04T05:37:06;20.30;86.10
42683;DHT22;28293;50.930;3.464;2022-08-04T05:39:40;20.30;86.10
42683;DHT22;28293;50.930;3.464;2022-08-04T05:42:09;20.30;86.20
42683;DHT22;28293;50.930;3.464;2022-08-04T05:44:35;20.50;86.90
42683;DHT22;28293;50.930;3.464;2022-08-04T05:47:03;20.60;85.70
42683;DHT22;28293;50.930;3.464;2022-08-04T05:49:29;20.80;85.40
42683;DHT22;28293;50.930;3.464;2022-08-04T05:52:00;21.00;84.30
42683;DHT22;28293;50.930;3.464;2022-08-04T05:54:27;21.10;84.20
42683;DHT22;28293;50.930;3.464;2022-08-04T05:56:53;21.10;84.20
42683;DHT22;28293;50.930;3.464;2022-08-04T05:59:21;21.10;84.30
42683;DHT22;28293;50.930;3.464;2022-08-04T06:01:50;21.20;84.40
42683;DHT22;28293;50.930;3.464;2022-08-04T06:04:17;21.10;83.90
42683;DHT22;28293;50.930;3.464;2022-08-04T06:06:44;21.10;84.40
42683;DHT22;28293;50.930;3.464;2022-08-04T06:09:10;21.10;84.30
42683;DHT22;28293;50.930;3.464;2022-08-04T06:11:37;21.00;84.50
42683;DHT22;28293;50.930;3.464;2022-08-04T06:14:07;21.10;84.50
42683;DHT22;28293;50.930;3.464;2022-08-04T06:16:37;21.20;83.90
42683;DHT22;28293;50.930;3.464;2022-08-04T06:19:05;21.30;84.00
42683;DHT22;28293;50.930;3.464;2022-08-04T06:21:32;21.30;83.60
42683;DHT22;28293;50.930;3.464;2022-08-04T06:23:59;21.30;83.70
42683;DHT22;28293;50.930;3.464;2022-08-04T06:26:27;21.40;83.40
42683;DHT22;28293;50.930;3.464;2022-08-04T06:28:55;21.30;83.50
42683;DHT22;28293;50.930;3.464;2022-08-04T06:31:21;21.30;83.60
42683;DHT22;28293;50.930;3.464;2022-08-04T06:34:17;21.30;83.80
42683;DHT22;28293;50.930;3.464;2022-08-04T06:36:43;21.20;84.10
42683;DHT22;28293;50.930;3.464;2022-08-04T06:39:10;21.20;84.10
42683;DHT22;28293;50.930;3.464;2022-08-04T06:41:36;21.20;83.90
42683;DHT22;28293;50.930;3.464;2022-08-04T06:44:06;21.30;83.60
42683;DHT22;28293;50.930;3.464;2022-08-04T06:46:34;21.30;83.60
42683;DHT22;28293;50.930;3.464;2022-08-04T06:49:00;21.40;83.50
42683;DHT22;28293;50.930;3.464;2022-08-04T06:51:29;21.30;83.60
42683;DHT22;28293;50.930;3.464;2022-08-04T06:53:56;21.10;83.90
42683;DHT22;28293;50.930;3.464;2022-08-04T06:56:22;21.10;84.10
42683;DHT22;28293;50.930;3.464;2022-08-04T06:58:50;21.10;84.40
42683;DHT22;28293;50.930;3.464;2022-08-04T07:01:18;21.30;84.20
42683;DHT22;28293;50.930;3.464;2022-08-04T07:03:45;21.60;83.80
42683;DHT22;28293;50.930;3.464;2022-08-04T07:06:11;21.80;82.80
42683;DHT22;28293;50.930;3.464;2022-08-04T07:08:38;21.90;81.90
42683;DHT22;28293;50.930;3.464;2022-08-04T07:11:04;22.00;81.70
42683;DHT22;28293;50.930;3.464;2022-08-04T07:13:31;22.10;81.70
42683;DHT22;28293;50.930;3.464;2022-08-04T07:15:59;22.00;81.40
42683;DHT22;28293;50.930;3.464;2022-08-04T07:18:25;22.00;81.50
42683;DHT22;28293;50.930;3.464;2022-08-04T07:20:51;22.10;81.40
42683;DHT22;28293;50.930;3.464;2022-08-04T07:23:22;22.10;80.90
42683;DHT22;28293;50.930;3.464;2022-08-04T07:25:50;22.10;81.20
42683;DHT22;28293;50.930;3.464;2022-08-04T07:28:17;22.10;80.80
42683;DHT22;28293;50.930;3.464;2022-08-04T07:30:44;21.90;80.90
42683;DHT22;28293;50.930;3.464;2022-08-04T07:33:11;21.90;81.40
42683;DHT22;28293;50.930;3.464;2022-08-04T07:35:38;21.90;81.60
42683;DHT22;28293;50.930;3.464;2022-08-04T07:38:04;21.90;82.30
42683;DHT22;28293;50.930;3.464;2022-08-04T07:40:30;21.90;81.60
42683;DHT22;28293;50.930;3.464;2022-08-04T07:42:57;21.90;81.50
42683;DHT22;28293;50.930;3.464;2022-08-04T07:45:23;22.00;81.60
42683;DHT22;28293;50.930;3.464;2022-08-04T07:47:49;21.90;81.60
42683;DHT22;28293;50.930;3.464;2022-08-04T07:50:15;22.00;81.20
42683;DHT22;28293;50.930;3.464;2022-08-04T07:52:43;22.00;81.10
42683;DHT22;28293;50.930;3.464;2022-08-04T07:55:09;22.00;81.60
42683;DHT22;28293;50.930;3.464;2022-08-04T07:57:35;22.10;81.70
42683;DHT22;28293;50.930;3.464;2022-08-04T08:00:03;22.10;80.90
42683;DHT22;28293;50.930;3.464;2022-08-04T08:02:30;22.20;80.40
42683;DHT22;28293;50.930;3.464;2022-08-04T08:04:56;22.20;80.80
42683;DHT22;28293;50.930;3.464;2022-08-04T08:07:22;22.10;80.50
42683;DHT22;28293;50.930;3.464;2022-08-04T08:09:48;22.10;80.80
42683;DHT22;28293;50.930;3.464;2022-08-04T08:12:14;22.10;80.80
42683;DHT22;28293;50.930;3.464;2022-08-04T08:14:40;22.10;81.20
42683;DHT22;28293;50.930;3.464;2022-08-04T08:17:07;22.20;80.70
42683;DHT22;28293;50.930;3.464;2022-08-04T08:19:33;22.10;80.50
42683;DHT22;28293;50.930;3.464;2022-08-04T08:22:01;22.10;80.80
42683;DHT22;28293;50.930;3.464;2022-08-04T08:24:29;22.10;80.60
42683;DHT22;28293;50.930;3.464;2022-08-04T08:26:55;22.10;81.30
42683;DHT22;28293;50.930;3.464;2022-08-04T08:29:21;22.10;80.50
42683;DHT22;28293;50.930;3.464;2022-08-04T08:31:47;22.10;81.00
42683;DHT22;28293;50.930;3.464;2022-08-04T08:34:14;22.20;80.10
42683;DHT22;28293;50.930;3.464;2022-08-04T08:36:48;22.20;80.20
42683;DHT22;28293;50.930;3.464;2022-08-04T08:41:57;22.40;80.00
42683;DHT22;28293;50.930;3.464;2022-08-04T08:47:48;22.60;79.40
42683;DHT22;28293;50.930;3.464;2022-08-04T08:53:32;22.60;78.80
42683;DHT22;28293;50.930;3.464;2022-08-04T09:01:57;22.70;78.40
42683;DHT22;28293;50.930;3.464;2022-08-04T09:12:51;23.20;76.90
42683;DHT22;28293;50.930;3.464;2022-08-04T09:16:13;23.10;77.00
42683;DHT22;28293;50.930;3.464;2022-08-04T09:23:39;23.90;74.60
42683;DHT22;28293;50.930;3.464;2022-08-04T09:26:12;24.10;73.70
42683;DHT22;28293;50.930;3.464;2022-08-04T09:29:14;24.20;72.10
42683;DHT22;28293;50.930;3.464;2022-08-04T09:31:59;24.50;72.00
42683;DHT22;28293;50.930;3.464;2022-08-04T09:34:51;24.70;70.60
42683;DHT22;28293;50.930;3.464;2022-08-04T09:37:35;25.20;69.50
42683;DHT22;28293;50.930;3.464;2022-08-04T09:40:14;25.60;67.50
42683;DHT22;28293;50.930;3.464;2022-08-04T09:42:51;25.80;65.60
42683;DHT22;28293;50.930;3.464;2022-08-04T09:45:28;26.20;65.00
42683;DHT22;28293;50.930;3.464;2022-08-04T09:48:07;26.60;63.10
42683;DHT22;28293;50.930;3.464;2022-08-04T09:50:38;26.50;63.40
42683;DHT22;28293;50.930;3.464;2022-08-04T09:53:26;26.70;62.50
42683;DHT22;28293;50.930;3.464;2022-08-04T10:01:16;26.80;61.70
42683;DHT22;28293;50.930;3.464;2022-08-04T10:03:48;26.70;61.90
42683;DHT22;28293;50.930;3.464;2022-08-04T10:14:52;26.70;60.90
42683;DHT22;28293;50.930;3.464;2022-08-04T10:20:21;27.20;59.20
42683;DHT22;28293;50.930;3.464;2022-08-04T10:23:46;27.40;57.40
42683;DHT22;28293;50.930;3.464;2022-08-04T10:27:06;27.80;57.80
42683;DHT22;28293;50.930;3.464;2022-08-04T10:29:08;27.60;58.70
42683;DHT22;28293;50.930;3.464;2022-08-04T10:31:41;27.80;56.80
42683;DHT22;28293;50.930;3.464;2022-08-04T10:34:15;27.80;58.20
42683;DHT22;28293;50.930;3.464;2022-08-04T10:37:26;27.80;58.70
42683;DHT22;28293;50.930;3.464;2022-08-04T10:45:43;28.50;55.70
42683;DHT22;28293;50.930;3.464;2022-08-04T10:51:34;28.50;55.70
42683;DHT22;28293;50.930;3.464;2022-08-04T10:54:13;28.80;54.90
42683;DHT22;28293;50.930;3.464;2022-08-04T10:56:43;28.60;56.20
42683;DHT22;28293;50.930;3.464;2022-08-04T10:59:16;28.70;55.50
42683;DHT22;28293;50.930;3.464;2022-08-04T11:01:45;28.60;55.20
42683;DHT22;28293;50.930;3.464;2022-08-04T11:06:55;28.40;56.90
42683;DHT22;28293;50.930;3.464;2022-08-04T11:09:22;28.50;55.90
42683;DHT22;28293;50.930;3.464;2022-08-04T11:12:00;28.60;55.40
42683;DHT22;28293;50.930;3.464;2022-08-04T11:17:37;28.50;55.00
42683;DHT22;28293;50.930;3.464;2022-08-04T11:20:29;28.30;55.30
42683;DHT22;28293;50.930;3.464;2022-08-04T11:23:03;28.60;55.10
42683;DHT22;28293;50.930;3.464;2022-08-04T11:25:52;29.10;54.30
42683;DHT22;28293;50.930;3.464;2022-08-04T11:28:47;29.60;53.10
42683;DHT22;28293;50.930;3.464;2022-08-04T11:31:58;29.70;52.20
42683;DHT22;28293;50.930;3.464;2022-08-04T11:37:10;30.20;49.40
42683;DHT22;28293;50.930;3.464;2022-08-04T11:40:01;30.40;50.00
42683;DHT22;28293;50.930;3.464;2022-08-04T11:42:40;30.60;49.20
42683;DHT22;28293;50.930;3.464;2022-08-04T11:45:14;30.50;49.30
42683;DHT22;28293;50.930;3.464;2022-08-04T11:47:49;30.80;48.40
42683;DHT22;28293;50.930;3.464;2022-08-04T11:53:11;31.00;48.10
42683;DHT22;28293;50.930;3.464;2022-08-04T11:55:42;30.60;49.40
42683;DHT22;28293;50.930;3.464;2022-08-04T11:58:08;30.60;47.50
42683;DHT22;28293;50.930;3.464;2022-08-04T12:00:39;30.20;47.70
42683;DHT22;28293;50.930;3.464;2022-08-04T12:12:12;30.50;47.50
42683;DHT22;28293;50.930;3.464;2022-08-04T12:20:28;30.50;46.60
42683;DHT22;28293;50.930;3.464;2022-08-04T12:22:54;30.80;45.90
42683;DHT22;28293;50.930;3.464;2022-08-04T12:25:37;31.10;46.40
42683;DHT22;28293;50.930;3.464;2022-08-04T12:28:21;30.80;45.70
42683;DHT22;28293;50.930;3.464;2022-08-04T12:30:53;30.70;45.60
42683;DHT22;28293;50.930;3.464;2022-08-04T12:33:28;30.60;46.20
42683;DHT22;28293;50.930;3.464;2022-08-04T12:36:08;30.60;46.20
42683;DHT22;28293;50.930;3.464;2022-08-04T12:38:43;30.80;45.90
42683;DHT22;28293;50.930;3.464;2022-08-04T12:41:13;30.90;44.70
42683;DHT22;28293;50.930;3.464;2022-08-04T12:43:41;31.00;44.80
42683;DHT22;28293;50.930;3.464;2022-08-04T12:46:18;31.00;45.00
42683;DHT22;28293;50.930;3.464;2022-08-04T12:48:45;31.10;43.70
42683;DHT22;28293;50.930;3.464;2022-08-04T12:51:12;31.20;45.50
42683;DHT22;28293;50.930;3.464;2022-08-04T12:53:40;31.60;44.10
42683;DHT22;28293;50.930;3.464;2022-08-04T12:56:11;31.70;43.80
42683;DHT22;28293;50.930;3.464;2022-08-04T12:58:40;31.80;42.90
42683;DHT22;28293;50.930;3.464;2022-08-04T13:01:20;32.00;43.20
42683;DHT22;28293;50.930;3.464;2022-08-04T13:06:14;32.30;42.90
42683;DHT22;28293;50.930;3.464;2022-08-04T13:08:42;32.20;43.10
42683;DHT22;28293;50.930;3.464;2022-08-04T13:11:10;32.30;42.70
42683;DHT22;28293;50.930;3.464;2022-08-04T13:13:38;32.10;42.30
42683;DHT22;28293;50.930;3.464;2022-08-04T13:16:06;31.70;43.40
42683;DHT22;28293;50.930;3.464;2022-08-04T13:18:37;31.00;44.60
42683;DHT22;28293;50.930;3.464;2022-08-04T13:21:19;31.00;44.60
42683;DHT22;28293;50.930;3.464;2022-08-04T13:23:51;30.60;45.90
42683;DHT22;28293;50.930;3.464;2022-08-04T13:26:17;30.30;48.90
42683;DHT22;28293;50.930;3.464;2022-08-04T13:28:46;29.90;49.90
42683;DHT22;28293;50.930;3.464;2022-08-04T13:31:18;30.00;50.40
42683;DHT22;28293;50.930;3.464;2022-08-04T13:33:48;30.00;50.10
42683;DHT22;28293;50.930;3.464;2022-08-04T13:36:15;30.10;49.60
42683;DHT22;28293;50.930;3.464;2022-08-04T13:38:53;30.10;49.70
42683;DHT22;28293;50.930;3.464;2022-08-04T13:41:20;29.60;50.20
42683;DHT22;28293;50.930;3.464;2022-08-04T13:43:55;29.30;50.90
42683;DHT22;28293;50.930;3.464;2022-08-04T13:46:27;29.20;51.50
42683;DHT22;28293;50.930;3.464;2022-08-04T13:48:55;29.10;51.60
42683;DHT22;28293;50.930;3.464;2022-08-04T13:51:22;29.20;51.80
42683;DHT22;28293;50.930;3.464;2022-08-04T13:53:58;28.90;51.90
42683;DHT22;28293;50.930;3.464;2022-08-04T13:56:34;28.70;52.90
42683;DHT22;28293;50.930;3.464;2022-08-04T13:59:02;29.00;52.60
42683;DHT22;28293;50.930;3.464;2022-08-04T14:01:31;29.20;51.80
42683;DHT22;28293;50.930;3.464;2022-08-04T14:04:16;29.50;51.00
42683;DHT22;28293;50.930;3.464;2022-08-04T14:06:58;29.70;50.00
42683;DHT22;28293;50.930;3.464;2022-08-04T14:09:28;29.40;51.70
42683;DHT22;28293;50.930;3.464;2022-08-04T14:12:05;29.20;50.90
42683;DHT22;28293;50.930;3.464;2022-08-04T14:14:34;29.10;51.60
42683;DHT22;28293;50.930;3.464;2022-08-04T14:17:06;29.10;51.60
42683;DHT22;28293;50.930;3.464;2022-08-04T14:19:53;29.10;51.60
42683;DHT22;28293;50.930;3.464;2022-08-04T14:25:09;29.00;51.90
42683;DHT22;28293;50.930;3.464;2022-08-04T14:30:28;29.00;51.80
42683;DHT22;28293;50.930;3.464;2022-08-04T14:33:11;29.10;52.10
42683;DHT22;28293;50.930;3.464;2022-08-04T14:35:38;29.00;51.70
42683;DHT22;28293;50.930;3.464;2022-08-04T14:38:05;29.20;51.00
42683;DHT22;28293;50.930;3.464;2022-08-04T14:40:34;29.00;51.60
42683;DHT22;28293;50.930;3.464;2022-08-04T14:43:01;29.00;51.50
42683;DHT22;28293;50.930;3.464;2022-08-04T14:47:54;29.30;51.80
42683;DHT22;28293;50.930;3.464;2022-08-04T14:50:34;29.60;51.20
42683;DHT22;28293;50.930;3.464;2022-08-04T14:53:06;30.10;49.20
42683;DHT22;28293;50.930;3.464;2022-08-04T14:55:33;30.40;48.30
42683;DHT22;28293;50.930;3.464;2022-08-04T14:58:00;30.10;48.40
42683;DHT22;28293;50.930;3.464;2022-08-04T15:00:31;29.50;49.80
42683;DHT22;28293;50.930;3.464;2022-08-04T15:03:02;29.00;50.80
42683;DHT22;28293;50.930;3.464;2022-08-04T15:05:29;28.60;51.90
42683;DHT22;28293;50.930;3.464;2022-08-04T15:07:56;28.60;52.30
42683;DHT22;28293;50.930;3.464;2022-08-04T15:10:21;28.70;51.70
42683;DHT22;28293;50.930;3.464;2022-08-04T15:12:47;28.50;51.90
42683;DHT22;28293;50.930;3.464;2022-08-04T15:15:14;28.40;52.50
42683;DHT22;28293;50.930;3.464;2022-08-04T15:17:41;28.30;52.60
42683;DHT22;28293;50.930;3.464;2022-08-04T15:20:07;28.10;52.10
42683;DHT22;28293;50.930;3.464;2022-08-04T15:22:34;28.10;51.80
42683;DHT22;28293;50.930;3.464;2022-08-04T15:24:59;28.30;51.50
42683;DHT22;28293;50.930;3.464;2022-08-04T15:27:28;28.50;51.30
42683;DHT22;28293;50.930;3.464;2022-08-04T15:29:59;28.60;50.80
42683;DHT22;28293;50.930;3.464;2022-08-04T15:32:28;28.60;50.50
42683;DHT22;28293;50.930;3.464;2022-08-04T15:35:01;28.50;51.30
42683;DHT22;28293;50.930;3.464;2022-08-04T15:37:32;28.60;50.80
42683;DHT22;28293;50.930;3.464;2022-08-04T15:40:59;28.60;50.70
42683;DHT22;28293;50.930;3.464;2022-08-04T15:43:06;28.40;51.20
42683;DHT22;28293;50.930;3.464;2022-08-04T15:46:05;27.90;51.90
42683;DHT22;28293;50.930;3.464;2022-08-04T15:48:31;27.60;53.10
42683;DHT22;28293;50.930;3.464;2022-08-04T15:53:27;27.50;53.60
42683;DHT22;28293;50.930;3.464;2022-08-04T15:55:53;27.40;53.40
42683;DHT22;28293;50.930;3.464;2022-08-04T15:58:19;27.40;53.60
42683;DHT22;28293;50.930;3.464;2022-08-04T16:16:28;27.30;53.00
42683;DHT22;28293;50.930;3.464;2022-08-04T16:18:54;27.10;52.50
42683;DHT22;28293;50.930;3.464;2022-08-04T16:21:28;26.80;54.00
42683;DHT22;28293;50.930;3.464;2022-08-04T16:26:54;26.80;53.90
42683;DHT22;28293;50.930;3.464;2022-08-04T16:29:42;27.00;53.50
42683;DHT22;28293;50.930;3.464;2022-08-04T16:37:06;26.70;53.30
42683;DHT22;28293;50.930;3.464;2022-08-04T16:39:32;26.40;54.20
42683;DHT22;28293;50.930;3.464;2022-08-04T16:41:57;26.50;54.30
42683;DHT22;28293;50.930;3.464;2022-08-04T16:46:58;26.60;53.60
42683;DHT22;28293;50.930;3.464;2022-08-04T16:49:25;26.60;53.20
42683;DHT22;28293;50.930;3.464;2022-08-04T16:51:52;26.50;53.40
42683;DHT22;28293;50.930;3.464;2022-08-04T16:54:18;26.50;53.50
42683;DHT22;28293;50.930;3.464;2022-08-04T16:56:45;26.50;53.70
42683;DHT22;28293;50.930;3.464;2022-08-04T16:59:11;26.60;53.80
42683;DHT22;28293;50.930;3.464;2022-08-04T17:01:46;26.60;53.50
42683;DHT22;28293;50.930;3.464;2022-08-04T17:04:12;26.40;53.70
42683;DHT22;28293;50.930;3.464;2022-08-04T17:06:40;26.30;53.80
42683;DHT22;28293;50.930;3.464;2022-08-04T17:09:15;26.00;54.50
42683;DHT22;28293;50.930;3.464;2022-08-04T17:11:43;25.70;55.00
42683;DHT22;28293;50.930;3.464;2022-08-04T17:14:09;25.70;55.50
42683;DHT22;28293;50.930;3.464;2022-08-04T17:16:40;25.50;56.00
42683;DHT22;28293;50.930;3.464;2022-08-04T17:19:06;25.50;56.40
42683;DHT22;28293;50.930;3.464;2022-08-04T17:21:34;25.50;56.50
42683;DHT22;28293;50.930;3.464;2022-08-04T17:24:02;25.40;56.40
42683;DHT22;28293;50.930;3.464;2022-08-04T17:26:31;25.40;56.30
42683;DHT22;28293;50.930;3.464;2022-08-04T17:28:58;25.40;57.10
42683;DHT22;28293;50.930;3.464;2022-08-04T17:31:26;25.50;56.50
42683;DHT22;28293;50.930;3.464;2022-08-04T17:33:54;25.50;56.60
42683;DHT22;28293;50.930;3.464;2022-08-04T17:36:25;25.20;57.40
42683;DHT22;28293;50.930;3.464;2022-08-04T17:38:53;25.30;57.10
42683;DHT22;28293;50.930;3.464;2022-08-04T17:41:24;25.20;57.10
42683;DHT22;28293;50.930;3.464;2022-08-04T17:43:59;25.30;57.30
42683;DHT22;28293;50.930;3.464;2022-08-04T17:51:40;24.90;57.90
42683;DHT22;28293;50.930;3.464;2022-08-04T17:54:06;24.80;58.40
42683;DHT22;28293;50.930;3.464;2022-08-04T17:59:10;24.70;58.90
42683;DHT22;28293;50.930;3.464;2022-08-04T18:04:37;24.50;59.20
42683;DHT22;28293;50.930;3.464;2022-08-04T18:07:04;24.50;59.40
42683;DHT22;28293;50.930;3.464;2022-08-04T18:09:33;24.50;59.40
42683;DHT22;28293;50.930;3.464;2022-08-04T18:12:10;24.40;59.10
42683;DHT22;28293;50.930;3.464;2022-08-04T18:15:00;24.30;59.60
42683;DHT22;28293;50.930;3.464;2022-08-04T18:17:36;24.30;59.30
42683;DHT22;28293;50.930;3.464;2022-08-04T18:20:08;24.20;59.60
42683;DHT22;28293;50.930;3.464;2022-08-04T18:22:35;24.20;59.80
42683;DHT22;28293;50.930;3.464;2022-08-04T18:25:01;24.10;59.60
42683;DHT22;28293;50.930;3.464;2022-08-04T18:27:28;24.10;59.60
42683;DHT22;28293;50.930;3.464;2022-08-04T18:29:55;24.10;59.80
42683;DHT22;28293;50.930;3.464;2022-08-04T18:32:21;24.10;60.20
42683;DHT22;28293;50.930;3.464;2022-08-04T18:34:49;24.10;60.00
42683;DHT22;28293;50.930;3.464;2022-08-04T18:37:15;24.10;60.10
42683;DHT22;28293;50.930;3.464;2022-08-04T18:39:41;24.00;60.10
42683;DHT22;28293;50.930;3.464;2022-08-04T18:42:07;23.90;60.20
42683;DHT22;28293;50.930;3.464;2022-08-04T18:44:33;23.80;60.00
42683;DHT22;28293;50.930;3.464;2022-08-04T18:47:00;23.80;60.30
42683;DHT22;28293;50.930;3.464;2022-08-04T18:49:26;23.80;60.10
42683;DHT22;28293;50.930;3.464;2022-08-04T18:51:53;23.90;60.10
42683;DHT22;28293;50.930;3.464;2022-08-04T18:54:20;23.80;59.90
42683;DHT22;28293;50.930;3.464;2022-08-04T18:56:47;23.80;60.20
42683;DHT22;28293;50.930;3.464;2022-08-04T18:59:13;23.70;60.10
42683;DHT22;28293;50.930;3.464;2022-08-04T19:01:39;23.70;60.00
42683;DHT22;28293;50.930;3.464;2022-08-04T19:04:05;23.60;60.10
42683;DHT22;28293;50.930;3.464;2022-08-04T19:06:32;23.50;60.10
42683;DHT22;28293;50.930;3.464;2022-08-04T19:08:58;23.50;60.40
42683;DHT22;28293;50.930;3.464;2022-08-04T19:11:24;23.50;60.30
42683;DHT22;28293;50.930;3.464;2022-08-04T19:13:51;23.40;60.10
42683;DHT22;28293;50.930;3.464;2022-08-04T19:16:17;23.40;59.90
42683;DHT22;28293;50.930;3.464;2022-08-04T19:18:43;23.30;59.10
42683;DHT22;28293;50.930;3.464;2022-08-04T19:21:09;23.40;59.30
42683;DHT22;28293;50.930;3.464;2022-08-04T19:23:34;23.40;59.20
42683;DHT22;28293;50.930;3.464;2022-08-04T19:26:00;23.50;59.70
42683;DHT22;28293;50.930;3.464;2022-08-04T19:28:28;23.50;58.60
42683;DHT22;28293;50.930;3.464;2022-08-04T19:30:54;23.40;57.90
42683;DHT22;28293;50.930;3.464;2022-08-04T19:33:20;23.30;58.40
42683;DHT22;28293;50.930;3.464;2022-08-04T19:35:46;23.20;58.60
42683;DHT22;28293;50.930;3.464;2022-08-04T19:38:12;23.00;59.20
42683;DHT22;28293;50.930;3.464;2022-08-04T19:40:38;23.00;60.00
42683;DHT22;28293;50.930;3.464;2022-08-04T19:43:05;23.00;59.70
42683;DHT22;28293;50.930;3.464;2022-08-04T19:45:32;22.90;60.10
42683;DHT22;28293;50.930;3.464;2022-08-04T19:47:58;23.00;60.50
42683;DHT22;28293;50.930;3.464;2022-08-04T19:50:23;23.00;60.10
42683;DHT22;28293;50.930;3.464;2022-08-04T19:52:50;23.00;60.40
42683;DHT22;28293;50.930;3.464;2022-08-04T19:55:16;23.00;60.30
42683;DHT22;28293;50.930;3.464;2022-08-04T19:57:41;23.00;60.10
42683;DHT22;28293;50.930;3.464;2022-08-04T20:00:11;23.00;60.60
42683;DHT22;28293;50.930;3.464;2022-08-04T20:02:42;23.10;59.80
42683;DHT22;28293;50.930;3.464;2022-08-04T20:05:09;22.90;60.50
42683;DHT22;28293;50.930;3.464;2022-08-04T20:07:35;23.00;60.10
42683;DHT22;28293;50.930;3.464;2022-08-04T20:10:02;23.00;59.90
42683;DHT22;28293;50.930;3.464;2022-08-04T20:12:28;23.00;60.10
42683;DHT22;28293;50.930;3.464;2022-08-04T20:14:54;23.20;59.80
42683;DHT22;28293;50.930;3.464;2022-08-04T20:17:20;23.30;59.10
42683;DHT22;28293;50.930;3.464;2022-08-04T20:19:45;23.30;58.80
42683;DHT22;28293;50.930;3.464;2022-08-04T20:22:11;23.30;58.70
42683;DHT22;28293;50.930;3.464;2022-08-04T20:24:37;23.30;58.50
42683;DHT22;28293;50.930;3.464;2022-08-04T20:27:03;23.20;58.60
42683;DHT22;28293;50.930;3.464;2022-08-04T20:29:29;23.20;58.30
42683;DHT22;28293;50.930;3.464;2022-08-04T20:31:54;23.10;58.60
42683;DHT22;28293;50.930;3.464;2022-08-04T20:34:20;23.00;58.50